Time;durP1;ratioP1;P1;durP2;ratioP2;P2;SDS_P1;SDS_P2;PMS_P1;PMS_P2;Temp;Humidity;BMP_temperature;BMP_pressure;BME280_temperature;BME280_humidity;BME280_pressure;Samples;Min_cycle;Max_cycle;Signal;HPM_P1;HPM_P2
2024/03/23 00:00:44;;;;;;;21.60;15.70;;;;;;;9.20;51.83;100295.66;106599;1253;61236;-67
2024/03/23 00:03:11;;;;;;;13.80;7.00;;;;;;;9.16;51.92;100293.69;106609;1251;61295;-66
2024/03/23 00:05:39;;;;;;;24.00;16.10;;;;;;;9.12;51.77;100292.09;106453;1251;65682;-61
2024/03/23 00:08:07;;;;;;;13.70;7.00;;;;;;;9.08;51.86;100293.71;106822;1251;62122;-66
2024/03/23 00:10:36;;;;;;;28.40;16.50;;;;;;;9.06;51.99;100292.17;106849;1256;63842;-68
2024/03/23 00:13:04;;;;;;;15.50;7.50;;;;;;;9.02;52.01;100290.86;106861;1251;61256;-60
2024/03/23 00:15:34;;;;;;;26.60;17.10;;;;;;;8.99;52.06;100287.41;106688;1251;60931;-61
2024/03/23 00:18:01;;;;;;;17.20;7.20;;;;;;;8.97;52.19;100285.50;106708;1256;68169;-59
2024/03/23 00:20:29;;;;;;;18.60;7.40;;;;;;;8.94;52.31;100284.65;106609;1255;61428;-60
2024/03/23 00:22:56;;;;;;;24.00;16.60;;;;;;;8.91;52.50;100283.98;106526;1254;63741;-64
2024/03/23 00:25:24;;;;;;;23.40;15.90;;;;;;;8.88;52.56;100279.29;106631;1257;61600;-61
2024/03/23 00:27:51;;;;;;;13.60;7.40;;;;;;;8.86;52.62;100279.46;106409;1251;61250;-60
2024/03/23 00:30:19;;;;;;;12.60;5.50;;;;;;;8.88;52.57;100274.80;106611;1252;65652;-61
2024/03/23 00:32:46;;;;;;;19.10;13.70;;;;;;;8.92;52.67;100270.27;106491;1251;64412;-60
2024/03/23 00:35:14;;;;;;;13.00;7.80;;;;;;;8.97;52.64;100269.73;106425;1257;62507;-65
2024/03/23 00:37:41;;;;;;;12.00;5.80;;;;;;;8.99;52.73;100266.96;106416;1256;61362;-68
2024/03/23 00:40:09;;;;;;;21.50;15.10;;;;;;;8.99;52.66;100266.59;106322;1256;61217;-66
2024/03/23 00:42:36;;;;;;;11.70;5.60;;;;;;;8.97;52.62;100260.80;106680;1256;65801;-67
2024/03/23 00:45:04;;;;;;;21.00;14.70;;;;;;;8.93;52.60;100259.50;106653;1255;63112;-61
2024/03/23 00:47:31;;;;;;;12.30;6.50;;;;;;;8.91;52.68;100257.42;105701;1257;63910;-60
2024/03/23 00:49:58;;;;;;;12.20;5.80;;;;;;;8.88;52.66;100257.06;105964;1257;61362;-61
2024/03/23 00:52:26;;;;;;;20.40;14.70;;;;;;;8.87;52.81;100255.98;105076;1251;61330;-59
2024/03/23 00:54:54;;;;;;;11.10;6.30;;;;;;;8.86;52.76;100253.42;106455;1251;64562;-63
2024/03/23 00:57:21;;;;;;;24.80;15.20;;;;;;;8.84;52.79;100250.44;106540;1251;61351;-59
2024/03/23 00:59:48;;;;;;;13.30;7.80;;;;;;;8.82;52.80;100248.79;104850;1257;65453;-59
2024/03/23 01:02:16;;;;;;;23.70;15.30;;;;;;;8.82;52.80;100245.32;104870;1251;61259;-58
2024/03/23 01:04:44;;;;;;;15.10;6.20;;;;;;;8.83;52.83;100238.27;106520;1254;61251;-69
2024/03/23 01:07:11;;;;;;;12.80;6.80;;;;;;;8.84;52.94;100239.09;106638;1251;64476;-58
2024/03/23 01:09:39;;;;;;;24.20;15.00;;;;;;;8.83;52.98;100235.64;104869;1251;61990;-61
2024/03/23 01:12:06;;;;;;;11.40;6.40;;;;;;;8.83;52.97;100230.92;105294;1255;66383;-61
2024/03/23 01:14:35;;;;;;;13.50;6.70;;;;;;;8.82;53.00;100231.67;105825;1256;61358;-59
2024/03/23 01:17:03;;;;;;;19.90;14.90;;;;;;;8.82;52.98;100232.02;109045;1255;59219;-64
2024/03/23 01:19:30;;;;;;;11.80;5.90;;;;;;;8.84;53.00;100232.40;109072;1250;64638;-59
2024/03/23 01:21:58;;;;;;;12.40;6.90;;;;;;;8.92;52.98;100231.42;104874;1251;64550;-61
2024/03/23 01:24:25;;;;;;;17.30;12.60;;;;;;;9.02;52.88;100226.86;104886;1251;63899;-60
2024/03/23 01:26:53;;;;;;;21.10;13.40;;;;;;;9.12;52.78;100218.91;109055;1251;59042;-63
2024/03/23 01:29:20;;;;;;;12.70;6.00;;;;;;;9.20;52.66;100221.27;105430;1255;65844;-70
2024/03/23 01:31:48;;;;;;;20.30;14.10;;;;;;;9.23;52.53;100214.39;105433;1251;65663;-67
2024/03/23 01:34:15;;;;;;;13.30;6.00;;;;;;;9.24;52.60;100214.81;106430;1263;61373;-64
2024/03/23 01:36:43;;;;;;;19.80;14.00;;;;;;;9.25;52.61;100211.79;106435;1254;63810;-63
2024/03/23 01:39:10;;;;;;;15.10;5.80;;;;;;;9.25;52.60;100207.41;106351;1254;61897;-64
2024/03/23 01:41:42;;;;;;;20.20;14.40;;;;;;;9.23;52.59;100203.90;106392;1249;61599;-66
2024/03/23 01:44:10;;;;;;;14.80;7.30;;;;;;;9.20;52.67;100203.41;106437;1251;65690;-61
2024/03/23 01:46:39;;;;;;;19.40;14.10;;;;;;;9.17;52.71;100205.58;106374;1257;62016;-68
2024/03/23 01:49:06;;;;;;;14.60;6.80;;;;;;;9.13;52.68;100206.77;105484;1252;62433;-60
2024/03/23 01:51:34;;;;;;;16.20;7.00;;;;;;;9.08;52.72;100205.38;106340;1256;61348;-64
2024/03/23 01:54:03;;;;;;;20.60;15.00;;;;;;;9.03;52.77;100203.81;106224;1251;269341;-61
2024/03/23 02:09:56;;;;;;;22.30;15.00;;;;;;;9.02;53.33;100197.86;102721;1283;603904;-60
2024/03/23 02:12:23;;;;;;;18.00;13.40;;;;;;;9.57;52.01;100190.95;105833;1260;161026;-60
2024/03/23 02:14:51;;;;;;;11.00;5.50;;;;;;;9.52;51.92;100187.27;106094;1255;59746;-61
2024/03/23 02:17:18;;;;;;;17.90;13.60;;;;;;;9.45;51.97;100185.93;106029;1260;64107;-58
2024/03/23 02:19:46;;;;;;;12.50;5.70;;;;;;;9.36;52.04;100182.79;105141;1263;60291;-60
2024/03/23 02:22:15;;;;;;;18.00;13.80;;;;;;;9.27;52.20;100184.67;106463;1254;63744;-58
2024/03/23 02:24:43;;;;;;;11.90;6.00;;;;;;;9.18;52.42;100181.89;105298;1267;59641;-60
2024/03/23 02:27:11;;;;;;;21.20;14.90;;;;;;;9.08;52.66;100177.05;105069;1257;59813;-59
2024/03/23 02:29:38;;;;;;;9.60;4.40;;;;;;;9.02;52.75;100175.80;105124;1257;62845;-59
2024/03/23 02:32:08;;;;;;;20.10;12.80;;;;;;;9.00;52.94;100171.87;105499;1259;62810;-66
2024/03/23 02:34:36;;;;;;;11.30;5.30;;;;;;;9.01;53.03;100169.37;106353;1260;63712;-64
2024/03/23 02:37:12;;;;;;;19.30;13.70;;;;;;;8.99;53.29;100166.90;105994;1260;60581;-59
2024/03/23 02:39:39;;;;;;;;;;;;;;;8.94;53.35;100165.17;106017;1255;60566;-66
2024/03/23 02:42:06;;;;;;;8.40;5.20;;;;;;;8.90;53.45;100161.98;105979;1254;63651;-71
2024/03/23 02:44:34;;;;;;;19.20;6.40;;;;;;;8.84;53.58;100161.91;106158;1260;60446;-65
2024/03/23 02:47:01;;;;;;;21.00;14.30;;;;;;;8.80;53.78;100155.56;105277;1257;62607;-59
2024/03/23 02:49:29;;;;;;;13.40;6.70;;;;;;;8.76;53.88;100154.47;105849;1254;60355;-58
2024/03/23 02:51:59;;;;;;;20.90;14.90;;;;;;;8.71;53.99;100152.01;104694;1258;60427;-59
2024/03/23 02:54:26;;;;;;;10.70;6.00;;;;;;;8.66;54.28;100151.02;107149;1254;63646;-66
2024/03/23 02:56:54;;;;;;;14.50;6.40;;;;;;;8.63;54.34;100152.66;104827;1254;61351;-58
2024/03/23 02:59:22;;;;;;;18.90;14.20;;;;;;;8.59;54.52;100150.86;104413;1260;66790;-59
2024/03/23 03:01:49;;;;;;;14.10;6.50;;;;;;;8.57;54.66;100149.45;105506;1255;59692;-58
2024/03/23 03:04:17;;;;;;;10.50;4.00;;;;;;;8.60;54.72;100147.27;104510;1257;60559;-58
2024/03/23 03:06:47;;;;;;;10.60;4.90;;;;;;;8.66;54.65;100145.04;108806;1254;65315;-58
2024/03/23 03:09:15;;;;;;;21.20;13.20;;;;;;;8.73;54.66;100140.02;108810;1260;61521;-61
2024/03/23 03:11:42;;;;;;;10.90;4.80;;;;;;;8.79;54.67;100137.83;107004;1254;63807;-60
2024/03/23 03:14:10;;;;;;;18.80;13.70;;;;;;;8.79;54.72;100137.94;104409;1254;60548;-59
2024/03/23 03:16:37;;;;;;;14.80;6.30;;;;;;;8.80;54.79;100136.38;104371;1257;60431;-57
2024/03/23 03:19:06;;;;;;;20.80;14.10;;;;;;;8.80;54.85;100133.17;104465;1254;64975;-66
2024/03/23 03:21:33;;;;;;;11.90;5.30;;;;;;;8.80;54.81;100130.19;106214;1260;60088;-59
2024/03/23 03:24:01;;;;;;;20.30;14.10;;;;;;;8.79;54.79;100125.23;106123;1258;65509;-65
2024/03/23 03:26:29;;;;;;;12.20;6.30;;;;;;;8.78;54.85;100121.65;106227;1260;60552;-58
2024/03/23 03:28:56;;;;;;;19.10;14.00;;;;;;;8.75;54.88;100119.72;104471;1255;61021;-63
2024/03/23 03:31:24;;;;;;;12.60;6.20;;;;;;;8.72;54.91;100117.48;105372;1257;64982;-57
2024/03/23 03:33:51;;;;;;;19.60;14.40;;;;;;;8.68;55.02;100116.03;104386;1255;63596;-59
2024/03/23 03:36:19;;;;;;;12.00;6.00;;;;;;;8.66;55.04;100117.09;104873;1255;63815;-58
2024/03/23 03:38:47;;;;;;;21.30;12.60;;;;;;;8.67;55.03;100114.75;105063;1254;60453;-59
2024/03/23 03:41:15;;;;;;;10.20;4.30;;;;;;;8.70;55.03;100114.00;105200;1254;60313;-59
2024/03/23 03:43:43;;;;;;;11.00;5.00;;;;;;;8.72;54.98;100111.18;104982;1260;63725;-60
2024/03/23 03:46:10;;;;;;;18.20;13.20;;;;;;;8.76;55.14;100111.45;105794;1259;60514;-57
2024/03/23 03:48:38;;;;;;;11.60;4.90;;;;;;;8.79;55.22;100109.83;104520;1258;63724;-57
2024/03/23 03:51:05;;;;;;;20.80;14.30;;;;;;;8.80;55.19;100109.38;104764;1256;60555;-57
2024/03/23 03:53:33;;;;;;;11.40;5.90;;;;;;;8.80;55.14;100110.48;104417;1257;60380;-58
2024/03/23 03:56:01;;;;;;;10.90;5.50;;;;;;;8.76;55.11;100112.30;104328;1260;74161;-58
2024/03/23 03:58:29;;;;;;;22.80;14.50;;;;;;;8.70;55.22;100109.59;104333;1257;61881;-58
2024/03/23 04:00:56;;;;;;;11.00;5.30;;;;;;;8.66;55.40;100108.70;104503;1254;63725;-58
2024/03/23 04:03:24;;;;;;;21.30;14.40;;;;;;;8.61;55.52;100106.66;104413;1258;60659;-61
2024/03/23 04:05:52;;;;;;;11.20;5.70;;;;;;;8.54;55.63;100105.56;105217;1259;60362;-58
2024/03/23 04:08:20;;;;;;;12.60;6.00;;;;;;;8.50;55.88;100102.90;106811;1257;64891;-64
2024/03/23 04:10:48;;;;;;;21.40;14.10;;;;;;;8.47;56.04;100102.08;106060;1258;61406;-60
2024/03/23 04:13:16;;;;;;;10.60;6.40;;;;;;;8.47;56.20;100097.09;106200;1254;63761;-60
2024/03/23 04:15:43;;;;;;;10.20;4.80;;;;;;;8.50;56.26;100094.67;106235;1255;60433;-59
2024/03/23 04:18:11;;;;;;;20.40;12.70;;;;;;;8.57;56.17;100097.99;105750;1254;60481;-64
2024/03/23 04:20:38;;;;;;;12.90;5.80;;;;;;;8.65;56.21;100099.00;106050;1260;63627;-58
2024/03/23 04:23:06;;;;;;;20.00;13.80;;;;;;;8.69;56.23;100097.61;105879;1254;61411;-62
2024/03/23 04:25:33;;;;;;;11.00;4.90;;;;;;;8.72;56.33;100096.39;105991;1255;62470;-58
2024/03/23 04:28:01;;;;;;;17.50;5.10;;;;;;;8.73;56.30;100093.79;105093;1254;60563;-62
2024/03/23 04:30:29;;;;;;;20.80;13.40;;;;;;;8.75;56.35;100097.52;106329;1254;60357;-61
2024/03/23 04:32:58;;;;;;;9.40;5.00;;;;;;;8.77;56.35;100090.96;106131;1254;64933;-58
2024/03/23 04:35:26;;;;;;;12.70;6.80;;;;;;;8.76;56.38;100086.13;107089;1255;61346;-61
2024/03/23 04:37:55;;;;;;;18.40;13.80;;;;;;;8.74;56.41;100078.87;105891;1259;62536;-63
2024/03/23 04:40:23;;;;;;;9.40;4.50;;;;;;;8.73;56.53;100076.37;105775;1255;61636;-62
2024/03/23 04:42:50;;;;;;;13.10;5.20;;;;;;;8.77;56.60;100073.77;105161;1254;60503;-61
2024/03/23 04:45:21;;;;;;;16.50;11.70;;;;;;;8.84;56.54;100073.58;105331;1260;65496;-62
2024/03/23 04:47:49;;;;;;;10.20;4.50;;;;;;;8.92;56.53;100067.85;105116;1260;61409;-62
2024/03/23 04:50:18;;;;;;;16.70;12.50;;;;;;;8.98;56.56;100069.55;105734;1260;62574;-62
2024/03/23 04:52:46;;;;;;;10.60;5.00;;;;;;;9.00;56.68;100070.95;106059;1258;60538;-58
2024/03/23 04:55:14;;;;;;;15.40;12.00;;;;;;;9.02;56.65;100070.58;105244;1257;60395;-57
2024/03/23 04:57:41;;;;;;;12.90;4.90;;;;;;;9.04;56.70;100073.40;105029;1260;66668;-60
2024/03/23 05:00:17;;;;;;;17.20;13.40;;;;;;;9.08;56.66;100075.19;107134;1254;61429;-62
2024/03/23 05:02:48;;;;;;;9.50;5.00;;;;;;;9.11;56.57;100070.91;106356;1254;73578;-63
2024/03/23 05:05:16;;;;;;;16.80;11.60;;;;;;;9.15;56.64;100070.65;105294;1257;60377;-62
2024/03/23 05:07:44;;;;;;;9.70;4.80;;;;;;;9.20;56.61;100068.54;105076;1254;61639;-63
2024/03/23 05:10:13;;;;;;;11.70;5.30;;;;;;;9.29;56.49;100065.71;105185;1260;63616;-65
2024/03/23 05:12:40;;;;;;;16.80;11.40;;;;;;;9.40;56.37;100058.49;105074;1260;61906;-61
2024/03/23 05:15:08;;;;;;;10.20;4.70;;;;;;;9.50;56.20;100053.81;105185;1260;64952;-61
2024/03/23 05:17:37;;;;;;;17.40;11.00;;;;;;;9.58;56.15;100049.90;105610;1259;60430;-61
2024/03/23 05:20:09;;;;;;;16.80;11.60;;;;;;;9.64;56.13;100045.23;106278;1254;60524;-61
2024/03/23 05:22:38;;;;;;;11.80;4.60;;;;;;;9.67;56.00;100043.16;106487;1254;63895;-61
2024/03/23 05:25:05;;;;;;;21.00;12.40;;;;;;;9.69;55.80;100045.11;105412;1257;60569;-60
2024/03/23 05:27:33;;;;;;;9.30;4.30;;;;;;;9.70;55.78;100041.73;104933;1261;64222;-61
2024/03/23 05:30:00;;;;;;;17.50;12.30;;;;;;;9.72;55.81;100043.83;109004;1256;58558;-62
2024/03/23 05:32:28;;;;;;;9.50;4.10;;;;;;;9.74;55.86;100047.70;108959;1257;58440;-61
2024/03/23 05:35:05;;;;;;;8.90;4.50;;;;;;;9.82;55.73;100046.88;108902;1254;63875;-60
2024/03/23 05:37:37;;;;;;;16.40;11.40;;;;;;;9.93;55.58;100043.73;107657;1256;60361;-60
2024/03/23 05:40:09;;;;;;;17.20;11.00;;;;;;;10.01;55.41;100047.27;107614;1258;63852;-62
2024/03/23 05:42:41;;;;;;;8.40;4.50;;;;;;;10.06;55.39;100049.77;105474;1263;62179;-62
2024/03/23 05:45:11;;;;;;;15.70;11.20;;;;;;;10.10;55.19;100049.65;105291;1259;60443;-60
2024/03/23 05:47:39;;;;;;;14.90;10.70;;;;;;;10.12;55.23;100048.61;105079;1259;64969;-55
2024/03/23 05:50:07;;;;;;;9.50;3.60;;;;;;;10.15;55.26;100050.40;104967;1254;61427;-56
2024/03/23 05:52:34;;;;;;;17.00;12.40;;;;;;;10.20;55.16;100050.90;106942;1257;62524;-60
2024/03/23 05:55:02;;;;;;;8.50;4.30;;;;;;;10.23;55.10;100046.11;105090;1259;60559;-59
2024/03/23 05:57:31;;;;;;;19.10;11.50;;;;;;;10.25;55.05;100048.23;105406;1254;60459;-58
2024/03/23 05:59:58;;;;;;;15.60;10.90;;;;;;;10.27;54.98;100046.11;109045;1254;65311;-73
2024/03/23 06:02:26;;;;;;;13.20;9.70;;;;;;;10.37;54.93;100046.93;107458;1256;60437;-55
2024/03/23 06:04:53;;;;;;;12.50;4.80;;;;;;;10.49;54.83;100050.42;105030;1261;62498;-63
2024/03/23 06:07:21;;;;;;;14.90;10.30;;;;;;;10.57;54.64;100047.45;105063;1257;60518;-62
2024/03/23 06:09:50;;;;;;;16.40;10.80;;;;;;;10.63;54.74;100046.58;104932;1259;60434;-53
2024/03/23 06:12:18;;;;;;;8.80;4.70;;;;;;;10.70;54.60;100048.49;104621;1259;65432;-63
2024/03/23 06:14:46;;;;;;;13.80;9.60;;;;;;;10.75;54.45;100046.84;105001;1260;63562;-64
2024/03/23 06:17:15;;;;;;;8.50;4.00;;;;;;;10.78;54.25;100046.34;106904;1257;62653;-68
2024/03/23 06:19:43;;;;;;;16.30;11.00;;;;;;;10.81;54.17;100047.05;104893;1260;61255;-71
2024/03/23 06:22:10;;;;;;;16.30;10.80;;;;;;;10.83;54.18;100048.93;108931;1259;59233;-65
2024/03/23 06:24:38;;;;;;;13.80;9.70;;;;;;;10.88;54.16;100046.02;106065;1254;66443;-65
2024/03/23 06:27:05;;;;;;;13.40;9.90;;;;;;;10.99;54.09;100046.55;105180;1259;62878;-71
2024/03/23 06:29:33;;;;;;;15.50;10.70;;;;;;;11.10;53.85;100046.13;105559;1254;62583;-66
2024/03/23 06:32:00;;;;;;;16.30;10.60;;;;;;;11.16;53.76;100046.80;106053;1255;61451;-66
2024/03/23 06:34:28;;;;;;;16.10;11.10;;;;;;;11.19;53.74;100049.21;106099;1254;61270;-67
2024/03/23 06:36:55;;;;;;;13.90;10.50;;;;;;;11.22;53.79;100052.44;105069;1254;73881;-70
2024/03/23 06:39:25;;;;;;;14.70;10.30;;;;;;;11.26;53.75;100053.98;105054;1257;62171;-61
2024/03/23 06:41:53;;;;;;;15.20;10.20;;;;;;;11.29;53.66;100053.36;106226;1257;65974;-65
2024/03/23 06:44:22;;;;;;;18.20;11.60;;;;;;;11.29;53.55;100051.36;106327;1254;61337;-66
2024/03/23 06:46:51;;;;;;;10.40;4.30;;;;;;;11.30;53.58;100047.09;105399;1259;61350;-69
2024/03/23 06:49:19;;;;;;;15.80;10.20;;;;;;;11.28;53.66;100046.40;107666;1253;66629;-67
2024/03/23 06:51:48;;;;;;;15.10;10.10;;;;;;;11.29;53.61;100040.53;105554;1254;61519;-67
2024/03/23 06:54:19;;;;;;;15.20;10.70;;;;;;;11.36;53.45;100041.35;106113;1254;64271;-67
2024/03/23 06:56:47;;;;;;;13.90;10.00;;;;;;;11.45;53.38;100039.65;105197;1254;61371;-68
2024/03/23 06:59:14;;;;;;;14.90;10.80;;;;;;;11.49;53.48;100043.32;105204;1259;61247;-64
2024/03/23 07:01:42;;;;;;;16.10;11.30;;;;;;;11.50;53.37;100042.56;105114;1254;64505;-66
2024/03/23 07:04:11;;;;;;;14.70;11.00;;;;;;;11.48;53.37;100044.27;105207;1254;63846;-66
2024/03/23 07:06:45;;;;;;;16.70;12.00;;;;;;;11.48;53.45;100043.64;105067;1259;63745;-66
2024/03/23 07:09:12;;;;;;;15.50;10.70;;;;;;;11.48;53.57;100041.66;105286;1254;61342;-65
2024/03/23 07:11:41;;;;;;;10.20;4.80;;;;;;;11.51;53.57;100040.02;105269;1256;61376;-63
2024/03/23 07:14:09;;;;;;;15.60;10.60;;;;;;;11.53;53.55;100035.06;105420;1254;73507;-64
2024/03/23 07:16:41;;;;;;;18.50;11.40;;;;;;;11.53;53.41;100036.13;106153;1256;63018;-66
2024/03/23 07:19:12;;;;;;;16.40;11.20;;;;;;;11.53;53.47;100033.70;105459;1254;66925;-62
2024/03/23 07:21:40;;;;;;;20.20;10.20;;;;;;;11.56;53.37;100030.10;105202;1257;61246;-67
2024/03/23 07:24:08;;;;;;;19.40;11.50;;;;;;;11.60;53.40;100025.80;105947;1257;61334;-61
2024/03/23 07:26:39;;;;;;;11.50;4.90;;;;;;;11.65;53.38;100026.26;106107;1254;68165;-63
2024/03/23 07:29:15;;;;;;;16.10;11.00;;;;;;;11.68;53.27;100026.55;106423;1254;61040;-63
2024/03/23 07:31:44;;;;;;;20.90;11.50;;;;;;;11.69;53.37;100020.42;106205;1255;65219;-64
2024/03/23 07:34:16;;;;;;;14.40;10.60;;;;;;;11.68;53.34;100015.98;106508;1256;61247;-65
2024/03/23 07:36:45;;;;;;;18.90;12.20;;;;;;;11.67;53.27;100013.40;107074;1254;61960;-68
2024/03/23 07:39:19;;;;;;;17.60;11.50;;;;;;;11.66;53.41;100010.52;105273;1254;68218;-61
2024/03/23 07:41:51;;;;;;;17.40;10.80;;;;;;;11.67;53.52;100010.83;106387;1254;61703;-60
2024/03/23 07:44:20;;;;;;;18.30;11.40;;;;;;;11.69;53.70;100008.55;105049;1254;64311;-61
2024/03/23 07:46:49;;;;;;;16.30;11.70;;;;;;;11.72;53.63;100007.89;105376;1254;61385;-64
2024/03/23 07:49:19;;;;;;;15.30;11.10;;;;;;;11.81;53.54;100012.19;105236;1253;61294;-60
2024/03/23 07:51:51;;;;;;;17.30;12.30;;;;;;;11.90;53.38;100015.98;105926;1256;65960;-66
2024/03/23 07:54:22;;;;;;;17.60;12.10;;;;;;;11.94;53.29;100014.20;106345;1257;64265;-64
2024/03/23 07:56:50;;;;;;;14.80;11.20;;;;;;;11.98;53.30;100008.04;105251;1257;62515;-60
2024/03/23 07:59:19;;;;;;;17.50;11.90;;;;;;;12.02;53.28;100008.55;104815;1257;61361;-63
2024/03/23 08:01:46;;;;;;;17.10;11.60;;;;;;;12.03;53.31;100006.50;109077;1254;60741;-65
2024/03/23 08:04:14;;;;;;;22.30;11.80;;;;;;;12.05;53.19;100006.67;106382;1256;76952;-65
2024/03/23 08:06:41;;;;;;;17.60;11.90;;;;;;;12.08;53.27;100008.85;105199;1256;69484;-64
2024/03/23 08:09:13;;;;;;;16.20;12.60;;;;;;;12.12;53.10;100003.98;104814;1256;62544;-57
2024/03/23 08:11:43;;;;;;;17.40;13.00;;;;;;;12.14;53.11;100002.17;105518;1254;61366;-64
2024/03/23 08:14:11;;;;;;;18.10;12.70;;;;;;;12.17;53.24;99995.38;105039;1254;61731;-70
2024/03/23 08:16:39;;;;;;;18.10;11.80;;;;;;;12.20;53.06;99995.99;104892;1260;64827;-61
2024/03/23 08:19:08;;;;;;;16.40;11.40;;;;;;;12.28;52.90;99991.89;105122;1259;61368;-65
2024/03/23 08:21:36;;;;;;;16.90;11.90;;;;;;;12.38;52.77;99990.23;106025;1254;63760;-63
2024/03/23 08:24:04;;;;;;;17.90;12.60;;;;;;;12.44;52.70;99988.13;105026;1256;61331;-62
2024/03/23 08:26:31;;;;;;;17.70;13.20;;;;;;;12.50;52.76;99987.18;105679;1254;61352;-61
2024/03/23 08:28:59;;;;;;;18.80;12.80;;;;;;;12.57;52.63;99984.49;105171;1259;66082;-63
2024/03/23 08:31:26;;;;;;;19.20;13.40;;;;;;;12.61;52.56;99980.02;105111;1258;63613;-65
2024/03/23 08:33:54;;;;;;;18.80;13.40;;;;;;;12.65;52.36;99969.95;105710;1254;73740;-58
2024/03/23 08:36:23;;;;;;;20.10;12.70;;;;;;;12.67;52.41;99969.08;105915;1259;61276;-60
2024/03/23 08:38:53;;;;;;;18.50;13.10;;;;;;;12.70;52.37;99966.48;105244;1259;61273;-60
2024/03/23 08:41:21;;;;;;;20.60;13.90;;;;;;;12.72;52.20;99966.61;105425;1254;64493;-62
2024/03/23 08:43:48;;;;;;;21.60;13.50;;;;;;;12.74;52.30;99971.36;105266;1254;63818;-61
2024/03/23 08:46:17;;;;;;;17.60;13.60;;;;;;;12.76;52.31;99971.86;105224;1259;62512;-62
2024/03/23 08:48:46;;;;;;;20.70;13.20;;;;;;;12.77;52.15;99972.51;105108;1255;61278;-65
2024/03/23 08:51:14;;;;;;;19.70;12.80;;;;;;;12.76;52.25;99970.64;105159;1254;61305;-65
2024/03/23 08:53:42;;;;;;;16.30;12.00;;;;;;;12.82;52.36;99960.77;105215;1259;64417;-60
2024/03/23 08:56:10;;;;;;;16.60;11.30;;;;;;;12.91;52.19;99955.91;105626;1258;71318;-61
2024/03/23 08:58:38;;;;;;;16.50;11.70;;;;;;;12.96;52.18;99952.94;106147;1257;63762;-62
2024/03/23 09:01:10;;;;;;;18.30;12.40;;;;;;;12.99;52.19;99950.63;105444;1257;61332;-68
2024/03/23 09:03:38;;;;;;;15.90;12.40;;;;;;;13.04;51.87;99950.70;105355;1254;61429;-65
2024/03/23 09:06:13;;;;;;;20.60;13.10;;;;;;;13.04;51.89;99944.73;105936;1259;68095;-63
2024/03/23 09:08:41;;;;;;;19.30;13.40;;;;;;;13.06;52.01;99934.15;105215;1255;64164;-68
2024/03/23 09:11:11;;;;;;;17.90;12.40;;;;;;;13.11;52.02;99930.71;105420;1259;64290;-70
2024/03/23 09:13:39;;;;;;;21.00;13.00;;;;;;;13.13;51.78;99928.52;105323;1256;61285;-61
2024/03/23 09:16:06;;;;;;;18.50;13.40;;;;;;;13.16;51.79;99929.61;104967;1254;61329;-60
2024/03/23 09:18:35;;;;;;;18.40;13.30;;;;;;;13.17;51.69;99931.13;104933;1259;76980;-58
2024/03/23 09:21:04;;;;;;;17.20;12.80;;;;;;;13.18;51.88;99927.84;105649;1256;61294;-58
2024/03/23 09:23:31;;;;;;;18.50;13.10;;;;;;;13.24;51.76;99924.84;105706;1256;63787;-60
2024/03/23 09:26:03;;;;;;;20.10;12.80;;;;;;;13.31;51.57;99926.08;105178;1256;61378;-60
2024/03/23 09:28:30;;;;;;;18.00;12.90;;;;;;;13.38;51.46;99920.34;105666;1260;61452;-59
2024/03/23 09:31:08;;;;;;;16.10;11.90;;;;;;;13.45;51.30;99918.91;105044;1256;76884;-62
2024/03/23 09:33:36;;;;;;;19.80;14.10;;;;;;;13.52;51.29;99921.23;105036;1256;61903;-61
2024/03/23 09:36:04;;;;;;;20.00;13.40;;;;;;;13.60;51.20;99921.32;105442;1254;65991;-60
2024/03/23 09:38:32;;;;;;;20.80;13.70;;;;;;;13.66;51.05;99924.89;106324;1259;61319;-61
2024/03/23 09:40:59;;;;;;;17.10;12.00;;;;;;;13.73;50.84;99920.19;104917;1255;61318;-61
2024/03/23 09:43:27;;;;;;;17.80;12.70;;;;;;;13.78;50.76;99915.96;106098;1254;67944;-62
2024/03/23 09:45:54;;;;;;;17.30;12.10;;;;;;;13.83;50.52;99912.10;104490;1254;61838;-68
2024/03/23 09:48:22;;;;;;;15.60;12.00;;;;;;;13.89;50.41;99909.71;104991;1259;64245;-62
2024/03/23 09:50:49;;;;;;;17.50;12.20;;;;;;;13.98;50.45;99901.95;104993;1259;61378;-59
2024/03/23 09:53:17;;;;;;;17.70;12.70;;;;;;;14.06;50.14;99901.64;105082;1259;61654;-69
2024/03/23 09:55:45;;;;;;;20.50;13.70;;;;;;;14.10;50.02;99905.11;105180;1257;65978;-60
2024/03/23 09:58:13;;;;;;;17.80;11.60;;;;;;;14.14;50.09;99896.27;105270;1254;62110;-63
2024/03/23 10:00:40;;;;;;;20.20;13.30;;;;;;;14.20;49.91;99889.80;104912;1259;62940;-66
2024/03/23 10:03:10;;;;;;;14.40;11.40;;;;;;;14.25;49.61;99884.23;104988;1262;61353;-68
2024/03/23 10:05:38;;;;;;;17.50;12.20;;;;;;;14.28;49.54;99880.13;106866;1254;61300;-64
2024/03/23 10:08:14;;;;;;;17.80;12.00;;;;;;;14.33;49.41;99880.90;104958;1256;76855;-63
2024/03/23 10:10:42;;;;;;;13.90;10.50;;;;;;;14.36;49.44;99876.55;105040;1256;62620;-71
2024/03/23 10:13:09;;;;;;;18.80;12.20;;;;;;;14.43;49.29;99875.98;105436;1259;72862;-67
2024/03/23 10:15:37;;;;;;;18.90;12.30;;;;;;;14.50;49.15;99868.95;104924;1256;61343;-61
2024/03/23 10:18:20;;;;;;;18.10;12.50;;;;;;;14.57;49.02;99862.89;105053;1255;61419;-64
2024/03/23 10:20:52;;;;;;;16.70;12.00;;;;;;;14.71;48.97;99854.77;104949;1254;75231;-65
2024/03/23 10:23:20;;;;;;;17.90;12.40;;;;;;;14.86;48.73;99855.42;105056;1256;62518;-62
2024/03/23 10:25:47;;;;;;;17.60;12.00;;;;;;;15.01;48.36;99851.92;106032;1255;64144;-63
2024/03/23 10:28:15;;;;;;;15.80;11.90;;;;;;;15.10;47.48;99852.20;104855;1254;61455;-64
2024/03/23 10:30:43;;;;;;;19.10;11.30;;;;;;;15.11;47.45;99853.39;104941;1256;61134;-60
2024/03/23 10:33:11;;;;;;;16.90;11.60;;;;;;;15.09;47.38;99853.42;104941;1254;66602;-58
2024/03/23 10:35:38;;;;;;;14.30;11.40;;;;;;;15.09;47.48;99847.59;104896;1254;61667;-65
2024/03/23 10:38:07;;;;;;;16.60;11.60;;;;;;;15.12;47.77;99846.58;108647;1256;73696;-64
2024/03/23 10:40:35;;;;;;;14.20;10.00;;;;;;;15.17;47.83;99836.80;105558;1257;61286;-63
2024/03/23 10:43:04;;;;;;;15.70;11.00;;;;;;;15.24;47.86;99834.07;105676;1256;61237;-65
2024/03/23 10:45:32;;;;;;;16.30;11.60;;;;;;;15.33;47.67;99835.60;105337;1254;76713;-63
2024/03/23 10:47:59;;;;;;;16.10;11.20;;;;;;;15.39;47.37;99830.25;105071;1254;72140;-63
2024/03/23 10:50:27;;;;;;;15.80;10.80;;;;;;;15.44;47.37;99825.34;105470;1254;62761;-63
2024/03/23 10:52:58;;;;;;;16.10;11.70;;;;;;;15.49;47.17;99822.52;105065;1259;61307;-61
2024/03/23 10:55:25;;;;;;;17.40;10.40;;;;;;;15.52;46.97;99821.19;105104;1256;61349;-64
2024/03/23 10:57:56;;;;;;;15.10;10.80;;;;;;;15.54;47.04;99818.86;105056;1254;65709;-63
2024/03/23 11:00:24;;;;;;;17.30;11.70;;;;;;;15.56;47.01;99811.10;105133;1259;61250;-65
2024/03/23 11:02:52;;;;;;;15.60;10.80;;;;;;;15.58;46.90;99806.32;105972;1254;66048;-63
2024/03/23 11:05:26;;;;;;;14.50;10.70;;;;;;;15.60;46.57;99802.34;105055;1254;61295;-62
2024/03/23 11:07:54;;;;;;;16.60;10.90;;;;;;;15.62;46.76;99800.91;106046;1258;61664;-63
2024/03/23 11:10:30;;;;;;;16.00;10.30;;;;;;;15.67;46.45;99795.26;105232;1259;66077;-66
2024/03/23 11:12:57;;;;;;;16.20;10.40;;;;;;;15.77;46.64;99788.35;105706;1254;62053;-63
2024/03/23 11:15:25;;;;;;;14.20;10.60;;;;;;;15.87;46.47;99785.48;106630;1259;72561;-70
2024/03/23 11:18:12;;;;;;;14.40;10.30;;;;;;;15.95;45.96;99783.23;105079;1254;61296;-61
2024/03/23 11:20:39;;;;;;;17.20;10.90;;;;;;;15.99;45.82;99780.26;105345;1256;61436;-60
2024/03/23 11:23:07;;;;;;;15.30;10.00;;;;;;;16.01;45.75;99773.48;105031;1260;76916;-61
2024/03/23 11:25:35;;;;;;;16.80;11.10;;;;;;;16.03;45.95;99769.89;106217;1254;63762;-61
2024/03/23 11:28:11;;;;;;;13.80;10.30;;;;;;;16.09;46.07;99767.77;105469;1261;74926;-65